Time;durP1;ratioP1;P1;durP2;ratioP2;P2;SDS_P1;SDS_P2;PMS_P1;PMS_P2;Temp;Humidity;BMP_temperature;BMP_pressure;BME280_temperature;BME280_humidity;BME280_pressure;Samples;Min_cycle;Max_cycle;Signal;HPM_P1;HPM_P2
2022/08/13 00:00:00;;;;;;;14.15;7.03;;;;;;;17.77;63.14;100219.59;6203923;22;20474;-71
2022/08/13 00:02:24;;;;;;;14.82;6.85;;;;;;;17.76;63.03;100217.03;6203151;22;20019;-71
2022/08/13 00:05:09;;;;;;;18.90;6.95;;;;;;;17.75;62.64;100213.47;6203547;22;20012;-65
2022/08/13 00:07:33;;;;;;;17.95;7.10;;;;;;;17.74;62.97;100213.63;6230631;22;20114;-68
2022/08/13 00:10:00;;;;;;;16.80;7.20;;;;;;;17.73;62.81;100215.47;6178124;22;20050;-68
2022/08/13 00:15:19;;;;;;;17.38;8.23;;;;;;;17.71;63.02;100212.06;6230602;22;20015;-70
2022/08/13 00:17:49;;;;;;;17.35;7.45;;;;;;;17.66;63.17;100211.63;6202930;22;20087;-70
2022/08/13 00:20:13;;;;;;;15.90;7.90;;;;;;;17.63;63.41;100206.50;6230498;22;20015;-71
2022/08/13 00:22:39;;;;;;;14.70;7.20;;;;;;;17.61;63.41;100213.84;6203279;22;20041;-70
2022/08/13 00:25:07;;;;;;;13.73;7.63;;;;;;;17.62;63.44;100212.00;6230127;22;20027;-71
2022/08/13 00:27:32;;;;;;;19.08;8.10;;;;;;;17.59;63.72;100220.41;6177707;22;20011;-71
2022/08/13 00:29:57;;;;;;;13.90;7.68;;;;;;;17.56;63.78;100212.59;6201400;22;20016;-68
2022/08/13 00:32:29;;;;;;;16.85;8.43;;;;;;;17.54;63.97;100212.72;6178177;22;20219;-68
2022/08/13 00:34:54;;;;;;;15.85;7.07;;;;;;;17.52;63.92;100203.91;6200822;22;20351;-71
2022/08/13 00:37:20;;;;;;;15.10;8.13;;;;;;;17.50;63.98;100207.75;6201933;22;20465;-70
2022/08/13 00:39:46;;;;;;;16.75;7.75;;;;;;;17.47;64.10;100208.91;6225705;22;20022;-70
2022/08/13 00:42:10;;;;;;;17.90;7.75;;;;;;;17.43;64.28;100205.63;6229831;22;20026;-66
2022/08/13 00:44:35;;;;;;;14.77;7.90;;;;;;;17.41;64.58;100201.34;6231302;22;20019;-67
2022/08/13 00:49:49;;;;;;;;;;;;;;;17.54;62.85;100196.53;6206968;22;20011;-66
2022/08/13 00:52:13;;;;;;;20.63;8.65;;;;;;;17.37;63.76;100195.41;6218515;22;19966;-69
2022/08/13 00:54:40;;;;;;;16.23;7.38;;;;;;;17.32;64.56;100196.81;6229815;22;20043;-68
2022/08/13 00:57:07;;;;;;;19.27;8.32;;;;;;;17.26;64.64;100198.22;6228875;22;20024;-67
2022/08/13 00:59:32;;;;;;;17.77;7.47;;;;;;;17.21;64.71;100199.63;6229568;22;20015;-66
2022/08/13 01:01:57;;;;;;;22.23;9.02;;;;;;;17.18;65.16;100200.75;6228663;22;20022;-66
2022/08/13 01:04:24;;;;;;;20.52;9.95;;;;;;;17.14;65.25;100196.63;6200696;22;20016;-66
2022/08/13 01:06:50;;;;;;;21.50;8.57;;;;;;;17.11;65.25;100196.03;6200759;22;20042;-66
2022/08/13 01:09:15;;;;;;;16.20;7.65;;;;;;;17.08;65.29;100196.31;6200482;22;20015;-66
2022/08/13 01:11:41;;;;;;;19.92;8.88;;;;;;;17.04;65.66;100193.88;6201389;22;20027;-66
2022/08/13 01:14:08;;;;;;;15.70;8.82;;;;;;;17.03;65.78;100197.59;6227503;22;20011;-65
2022/08/13 01:16:38;;;;;;;14.75;7.75;;;;;;;17.04;65.70;100193.06;6201091;22;20027;-65
2022/08/13 01:19:09;;;;;;;20.25;8.18;;;;;;;17.03;65.99;100188.66;6175693;22;20481;-65
2022/08/13 01:21:39;;;;;;;19.70;9.20;;;;;;;17.05;66.27;100192.91;6175997;22;20089;-64
2022/08/13 01:24:04;;;;;;;18.95;8.60;;;;;;;17.02;65.95;100187.81;6201408;22;20012;-64
2022/08/13 01:26:32;;;;;;;14.43;8.07;;;;;;;17.03;65.96;100186.81;6200861;22;20011;-65
2022/08/13 01:28:57;;;;;;;15.30;8.13;;;;;;;17.02;66.31;100189.66;6201643;22;20012;-64
2022/08/13 01:31:22;;;;;;;15.77;8.02;;;;;;;17.00;66.20;100194.31;6151196;22;20021;-66
2022/08/13 01:33:49;;;;;;;25.73;9.18;;;;;;;17.00;66.67;100192.47;6175604;22;20007;-65
2022/08/13 01:36:15;;;;;;;17.80;8.27;;;;;;;16.99;66.50;100185.38;6201067;22;20015;-67
2022/08/13 01:38:41;;;;;;;14.85;8.77;;;;;;;16.98;66.21;100185.50;6201272;22;20035;-66
2022/08/13 01:41:08;;;;;;;14.15;8.05;;;;;;;16.96;66.35;100182.97;6201362;22;20069;-67
2022/08/13 01:43:37;;;;;;;19.42;9.40;;;;;;;16.96;66.30;100185.66;6200525;22;20015;-68
2022/08/13 01:46:03;;;;;;;16.20;9.18;;;;;;;16.93;66.59;100185.91;6201621;22;20016;-62
2022/08/13 01:51:21;;;;;;;16.42;8.10;;;;;;;16.94;66.67;100193.00;6201460;22;20062;-67
2022/08/13 01:53:46;;;;;;;23.65;8.50;;;;;;;16.94;66.52;100186.78;6228468;22;20019;-66
2022/08/13 01:56:13;;;;;;;20.45;8.82;;;;;;;16.93;66.84;100180.53;6228108;22;20518;-68
2022/08/13 01:58:39;;;;;;;17.35;8.18;;;;;;;16.93;66.86;100185.91;6228144;22;20142;-67
2022/08/13 02:01:05;;;;;;;17.20;8.55;;;;;;;16.92;67.01;100183.38;6200232;22;20015;-68
2022/08/13 02:03:30;;;;;;;22.38;9.88;;;;;;;16.92;66.77;100183.38;6210675;22;20024;-66
2022/08/13 02:05:56;;;;;;;18.77;9.95;;;;;;;16.90;66.75;100180.81;6238726;22;20023;-67
2022/08/13 02:08:23;;;;;;;18.60;8.13;;;;;;;16.92;66.95;100184.25;6201988;22;20020;-69
2022/08/13 02:10:52;;;;;;;16.00;8.00;;;;;;;16.92;67.01;100184.25;6201652;22;20022;-68
2022/08/13 02:13:28;;;;;;;20.88;8.70;;;;;;;16.94;67.36;100184.06;6228984;22;20020;-63
2022/08/13 02:15:53;;;;;;;22.15;9.57;;;;;;;16.94;67.11;100184.06;6229411;22;20035;-64
2022/08/13 02:18:21;;;;;;;20.80;9.70;;;;;;;16.98;67.32;100182.81;6229490;22;20016;-64
2022/08/13 02:20:53;;;;;;;26.52;9.63;;;;;;;17.03;66.89;100180.59;6229206;22;20081;-64
2022/08/13 02:23:22;;;;;;;19.08;9.57;;;;;;;17.04;67.21;100179.59;6229283;22;20098;-62
2022/08/13 02:25:50;;;;;;;17.20;8.73;;;;;;;17.04;67.16;100177.72;6228770;22;20323;-63
2022/08/13 02:28:15;;;;;;;19.98;9.70;;;;;;;17.08;66.86;100182.84;6229412;22;20011;-65
2022/08/13 02:30:43;;;;;;;20.05;9.05;;;;;;;17.06;67.00;100186.53;6229016;22;20019;-68
2022/08/13 02:33:08;;;;;;;23.20;9.32;;;;;;;17.06;66.97;100182.97;6203651;22;20065;-73
2022/08/13 02:35:35;;;;;;;23.38;9.68;;;;;;;17.05;66.88;100179.44;6223259;22;20020;-70
2022/08/13 02:38:00;;;;;;;16.70;9.32;;;;;;;17.04;66.76;100188.50;6173274;22;20023;-69
2022/08/13 02:43:08;;;;;;;16.30;9.60;;;;;;;17.05;67.25;100189.34;6201925;22;20012;-68
2022/08/13 02:45:33;;;;;;;19.67;8.75;;;;;;;17.06;67.14;100197.31;6175834;22;20020;-72
2022/08/13 02:47:58;;;;;;;18.88;8.85;;;;;;;17.11;66.95;100193.34;6228097;22;20024;-70
2022/08/13 02:50:24;;;;;;;16.90;9.38;;;;;;;17.16;66.89;100189.25;6201888;22;20020;-69
2022/08/13 02:52:51;;;;;;;16.95;8.75;;;;;;;17.20;66.67;100192.53;6201537;22;20018;-70
2022/08/13 02:55:21;;;;;;;16.38;9.30;;;;;;;17.25;66.26;100193.81;6205553;22;20019;-74
2022/08/13 02:57:47;;;;;;;15.93;9.43;;;;;;;17.33;66.36;100193.13;6184716;22;20022;-70
2022/08/13 03:00:14;;;;;;;18.52;9.30;;;;;;;17.41;65.92;100193.25;6202120;22;20019;-70
2022/08/13 03:02:44;;;;;;;15.65;7.90;;;;;;;17.48;65.77;100197.13;6228596;22;20069;-69
2022/08/13 03:05:09;;;;;;;29.63;8.60;;;;;;;17.63;65.15;100197.56;6201492;22;20393;-70
2022/08/13 03:07:35;;;;;;;13.10;8.43;;;;;;;17.81;65.09;100197.75;6176090;22;20035;-69
2022/08/13 03:09:59;;;;;;;23.13;9.18;;;;;;;18.02;64.11;100204.69;6201760;22;20020;-70
2022/08/13 03:12:25;;;;;;;21.63;8.85;;;;;;;18.22;63.61;100196.56;6229036;22;20019;-69
2022/08/13 03:14:51;;;;;;;22.45;9.45;;;;;;;18.39;63.16;100193.97;6178282;22;20153;-70
2022/08/13 03:17:16;;;;;;;21.38;8.68;;;;;;;18.57;62.60;100194.03;6178627;22;20016;-70
2022/08/13 03:19:41;;;;;;;17.92;8.68;;;;;;;18.73;62.02;100190.75;6177839;22;20034;-72
2022/08/13 03:22:06;;;;;;;20.58;9.27;;;;;;;18.88;61.67;100191.09;6203399;22;20038;-70
2022/08/13 03:24:31;;;;;;;21.70;9.15;;;;;;;19.01;61.34;100189.75;6203176;22;20016;-67
2022/08/13 03:26:57;;;;;;;19.50;8.80;;;;;;;19.16;61.22;100195.53;6230600;22;20027;-67
2022/08/13 03:29:24;;;;;;;14.35;8.68;;;;;;;19.36;60.67;100193.53;6204244;22;20033;-67
2022/08/13 03:31:49;;;;;;;19.40;8.48;;;;;;;19.53;59.96;100192.72;6203797;22;20070;-67
2022/08/13 03:34:17;;;;;;;20.58;8.85;;;;;;;19.71;59.58;100192.75;6231643;22;20019;-68
2022/08/13 03:36:42;;;;;;;17.25;8.98;;;;;;;19.88;58.90;100183.75;6204394;22;20022;-68
2022/08/13 03:39:07;;;;;;;24.35;9.60;;;;;;;20.06;58.47;100189.19;6153343;22;20478;-67
2022/08/13 03:41:31;;;;;;;20.42;9.30;;;;;;;20.20;57.75;100197.56;6203704;22;20573;-68
2022/08/13 03:43:58;;;;;;;24.20;9.98;;;;;;;20.28;57.18;100191.38;6178169;22;20015;-67
2022/08/13 03:46:26;;;;;;;22.80;9.10;;;;;;;20.26;56.67;100193.38;6203594;22;20020;-67
2022/08/13 03:48:51;;;;;;;19.30;8.95;;;;;;;20.19;56.52;100192.31;6203758;22;20066;-68
2022/08/13 03:51:23;;;;;;;18.23;9.45;;;;;;;20.17;56.14;100202.47;6203631;22;20054;-68
2022/08/13 03:53:49;;;;;;;17.35;8.77;;;;;;;20.12;56.10;100197.50;6230870;22;20016;-67
2022/08/13 03:56:15;;;;;;;22.20;8.73;;;;;;;20.13;56.07;100196.50;6203892;22;20051;-68
2022/08/13 03:58:40;;;;;;;20.67;9.02;;;;;;;20.20;56.41;100199.44;6203398;22;20016;-67
2022/08/13 04:01:05;;;;;;;26.33;9.90;;;;;;;20.31;55.74;100191.88;6230517;22;20371;-68
2022/08/13 04:03:37;;;;;;;29.23;10.48;;;;;;;20.46;55.66;100194.91;6230296;22;20019;-68
2022/08/13 04:06:06;;;;;;;14.65;8.70;;;;;;;20.63;56.00;100187.75;6178412;22;20030;-67
2022/08/13 04:08:34;;;;;;;21.40;8.68;;;;;;;20.79;55.59;100195.09;6203474;22;20038;-67
2022/08/13 04:11:01;;;;;;;17.33;8.73;;;;;;;20.95;55.23;100190.59;6178518;22;20098;-67
2022/08/13 04:13:27;;;;;;;17.80;8.50;;;;;;;21.14;55.02;100188.63;6178034;22;20016;-67
2022/08/13 04:15:52;;;;;;;28.25;11.30;;;;;;;21.32;54.47;100182.13;6230375;22;20339;-66
2022/08/13 04:18:17;;;;;;;27.33;9.48;;;;;;;21.53;54.40;100187.09;6203508;22;20371;-66
2022/08/13 04:20:43;;;;;;;23.08;9.50;;;;;;;21.75;54.80;100191.03;6177889;22;20023;-67
2022/08/13 04:23:16;;;;;;;19.25;8.88;;;;;;;22.02;55.13;100196.16;6178022;22;20023;-69
2022/08/13 04:25:46;;;;;;;22.60;8.85;;;;;;;22.26;54.65;100187.16;6230162;22;20062;-69
2022/08/13 04:28:12;;;;;;;21.42;10.15;;;;;;;22.56;53.79;100192.88;6203428;22;20024;-68
2022/08/13 04:30:41;;;;;;;24.98;10.70;;;;;;;22.85;53.59;100182.28;6230694;22;20516;-70
2022/08/13 04:33:06;;;;;;;21.00;10.13;;;;;;;23.14;52.97;100181.66;6230458;22;20015;-69
2022/08/13 04:35:30;;;;;;;19.88;9.35;;;;;;;23.40;52.62;100182.19;6230548;22;20019;-70
2022/08/13 04:37:59;;;;;;;36.55;9.80;;;;;;;23.67;51.75;100178.16;6202930;22;20019;-70
2022/08/13 04:40:24;;;;;;;26.67;11.25;;;;;;;23.97;50.13;100179.09;6230280;22;20023;-70
2022/08/13 04:42:50;;;;;;;24.98;10.30;;;;;;;24.27;48.69;100171.88;6230204;22;20077;-70
2022/08/13 04:45:15;;;;;;;20.70;10.23;;;;;;;24.58;47.53;100171.75;6230054;22;20050;-70
2022/08/13 04:47:42;;;;;;;21.27;9.65;;;;;;;24.99;47.77;100174.03;6177577;22;20020;-70
2022/08/13 04:50:09;;;;;;;17.17;8.65;;;;;;;25.54;47.13;100170.69;6229957;22;20081;-70
2022/08/13 04:52:34;;;;;;;14.60;7.53;;;;;;;26.09;45.34;100171.91;6203098;22;20022;-70
2022/08/13 04:55:02;;;;;;;21.10;9.43;;;;;;;26.60;43.45;100167.06;6203102;22;20098;-71
2022/08/13 04:57:29;;;;;;;14.40;7.45;;;;;;;27.05;41.54;100173.88;6213558;22;20455;-70
2022/08/13 04:59:54;;;;;;;13.02;7.50;;;;;;;27.32;40.30;100169.34;6202882;22;20016;-67
2022/08/13 05:02:19;;;;;;;11.02;6.50;;;;;;;27.53;39.76;100166.50;6202646;22;20022;-66
2022/08/13 05:04:44;;;;;;;15.68;7.35;;;;;;;27.75;39.49;100165.31;6229954;22;20015;-67
2022/08/13 05:07:09;;;;;;;20.48;8.25;;;;;;;28.01;38.52;100169.09;6202700;22;20012;-67
2022/08/13 05:09:34;;;;;;;14.23;7.43;;;;;;;28.24;37.80;100166.81;6177273;22;20015;-67
2022/08/13 05:11:58;;;;;;;17.85;8.10;;;;;;;28.44;37.46;100169.56;6229916;22;20015;-67
2022/08/13 05:14:23;;;;;;;13.63;7.90;;;;;;;28.68;36.47;100168.03;6177641;22;20559;-66
2022/08/13 05:16:48;;;;;;;17.45;7.10;;;;;;;28.96;35.82;100157.66;6230242;22;20065;-66
2022/08/13 05:19:13;;;;;;;14.77;7.80;;;;;;;29.31;35.62;100160.06;6202719;22;20030;-67
2022/08/13 05:21:38;;;;;;;16.83;7.38;;;;;;;29.61;35.12;100158.44;6229712;22;20094;-67
2022/08/13 05:24:03;;;;;;;16.45;7.63;;;;;;;29.84;34.10;100161.44;6202700;22;20100;-67
2022/08/13 05:26:31;;;;;;;18.85;8.25;;;;;;;30.00;33.88;100160.09;6202743;22;20015;-67
2022/08/13 05:28:58;;;;;;;18.38;8.43;;;;;;;30.15;34.18;100165.25;6202648;22;20012;-67
2022/08/13 05:31:22;;;;;;;11.82;7.70;;;;;;;30.33;34.01;100162.56;6229606;22;20070;-66
2022/08/13 05:33:47;;;;;;;16.38;7.88;;;;;;;30.56;33.29;100164.72;6202685;22;20011;-66
2022/08/13 05:36:13;;;;;;;19.38;8.57;;;;;;;30.81;33.28;100161.91;6229261;22;20022;-66
2022/08/13 05:38:39;;;;;;;12.88;7.65;;;;;;;31.11;32.82;100162.84;6229426;22;20023;-69
2022/08/13 05:41:06;;;;;;;10.75;6.70;;;;;;;31.32;31.48;100159.63;6202417;22;20354;-68
2022/08/13 05:43:36;;;;;;;10.05;5.70;;;;;;;31.69;30.46;100170.59;6202426;22;20493;-67
2022/08/13 05:46:02;;;;;;;11.00;5.75;;;;;;;32.08;29.15;100174.63;6202384;22;20065;-69
2022/08/13 05:48:29;;;;;;;11.10;6.70;;;;;;;32.46;29.55;100177.00;6202504;22;20015;-68
2022/08/13 05:51:03;;;;;;;8.80;5.25;;;;;;;32.72;29.23;100171.03;6202653;22;20047;-69
2022/08/13 05:53:28;;;;;;;;;;;;;;;33.11;30.29;100177.69;6203329;22;20455;-69
2022/08/13 05:55:54;;;;;;;12.60;5.57;;;;;;;33.72;27.44;100169.81;6236164;22;20438;-65
2022/08/13 05:58:18;;;;;;;7.15;5.38;;;;;;;34.22;26.26;100173.47;6177010;22;20473;-65
2022/08/13 06:03:29;;;;;;;6.70;5.00;;;;;;;35.47;24.92;100182.25;6201867;22;20089;-65
2022/08/13 06:05:56;;;;;;;7.97;5.68;;;;;;;35.79;24.69;100182.34;6202312;22;20023;-65
2022/08/13 06:08:30;;;;;;;6.40;4.72;;;;;;;36.17;24.90;100175.78;6202138;22;20046;-64
2022/08/13 06:10:55;;;;;;;;;;;;;;;36.66;25.94;100179.25;6229375;22;20095;-64
2022/08/13 06:13:20;;;;;;;7.95;4.97;;;;;;;37.18;22.28;100178.47;6239050;22;20360;-68
2022/08/13 06:15:49;;;;;;;7.95;5.43;;;;;;;37.24;21.86;100178.22;6201675;22;20029;-70
2022/08/13 06:18:14;;;;;;;10.23;5.00;;;;;;;37.63;21.12;100173.09;6176675;22;20435;-69
2022/08/13 06:20:41;;;;;;;22.67;6.55;;;;;;;38.19;21.42;100180.69;6229021;22;20553;-68
2022/08/13 06:23:11;;;;;;;47.85;7.88;;;;;;;38.77;20.76;100182.91;6228896;22;20048;-69
2022/08/13 06:25:36;;;;;;;17.65;6.15;;;;;;;38.81;20.61;100186.81;6228871;22;20015;-69
2022/08/13 06:28:03;;;;;;;11.85;5.03;;;;;;;38.66;20.42;100189.63;6228980;22;20098;-69
2022/08/13 06:30:28;;;;;;;7.70;4.97;;;;;;;38.72;20.33;100182.91;6151646;22;20021;-68
2022/08/13 06:33:02;;;;;;;6.93;4.85;;;;;;;39.10;19.68;100198.16;6229111;22;20027;-64
2022/08/13 06:35:28;;;;;;;5.60;4.63;;;;;;;39.77;19.31;100196.75;6202128;22;20347;-65
2022/08/13 06:37:53;;;;;;;7.13;4.75;;;;;;;40.30;18.20;100183.00;6229071;22;20020;-65
2022/08/13 06:40:21;;;;;;;8.55;5.47;;;;;;;40.51;17.68;100189.25;6228980;22;20016;-64
2022/08/13 06:42:46;;;;;;;8.82;6.20;;;;;;;40.68;17.88;100200.81;6228928;22;20043;-64
2022/08/13 06:45:12;;;;;;;16.65;13.07;;;;;;;40.74;17.98;100198.84;6228990;22;20073;-64
2022/08/13 06:47:38;;;;;;;8.48;7.30;;;;;;;41.19;17.12;100201.16;6201673;22;20015;-65
2022/08/13 06:50:09;;;;;;;5.97;5.00;;;;;;;41.55;16.52;100201.53;6201935;22;20516;-64
2022/08/13 06:52:34;;;;;;;6.15;5.20;;;;;;;41.83;16.55;100196.94;6228947;22;20019;-64
2022/08/13 06:54:59;;;;;;;7.60;5.00;;;;;;;41.33;16.57;100196.47;6229270;22;20069;-65
2022/08/13 06:57:24;;;;;;;8.70;5.70;;;;;;;40.73;17.34;100195.22;6201962;22;20023;-64
2022/08/13 06:59:49;;;;;;;6.10;4.90;;;;;;;40.21;17.90;100193.09;6228927;22;20019;-64
2022/08/13 07:02:18;;;;;;;7.72;5.45;;;;;;;40.06;17.92;100196.88;6228679;22;20347;-65
2022/08/13 07:04:49;;;;;;;8.00;5.55;;;;;;;39.95;17.89;100200.03;6201716;22;20090;-63
2022/08/13 07:07:17;;;;;;;7.93;5.13;;;;;;;39.57;18.43;100188.50;6201645;22;20020;-64
2022/08/13 07:09:42;;;;;;;8.07;5.30;;;;;;;40.11;17.52;100198.78;6228721;22;20367;-63
2022/08/13 07:12:07;;;;;;;5.60;4.97;;;;;;;40.99;16.96;100193.78;6228645;22;20022;-63
2022/08/13 07:14:32;;;;;;;7.28;5.63;;;;;;;41.87;16.86;100198.00;6228845;22;20038;-63
2022/08/13 07:16:59;;;;;;;7.78;6.07;;;;;;;42.43;15.82;100196.31;6201730;22;20016;-63
2022/08/13 07:19:23;;;;;;;8.55;6.68;;;;;;;42.78;15.67;100192.03;6228841;22;20019;-63
2022/08/13 07:21:48;;;;;;;10.38;6.50;;;;;;;43.32;15.19;100186.47;6176740;22;20015;-62
2022/08/13 07:24:13;;;;;;;11.00;6.57;;;;;;;43.74;14.47;100188.06;6228966;22;20020;-64
2022/08/13 07:26:38;;;;;;;7.15;6.45;;;;;;;43.69;14.70;100184.53;6201612;22;20059;-64
2022/08/13 07:29:05;;;;;;;10.00;6.45;;;;;;;43.69;14.57;100196.59;6176216;22;20055;-65
2022/08/13 07:31:33;;;;;;;8.70;7.07;;;;;;;44.66;13.85;100191.41;6176394;22;20026;-66
2022/08/13 07:34:04;;;;;;;7.68;6.88;;;;;;;45.41;13.25;100202.50;6228708;22;20347;-64
2022/08/13 07:36:33;;;;;;;10.15;7.28;;;;;;;45.35;12.97;100198.22;6229154;22;20065;-63
2022/08/13 07:39:05;;;;;;;9.43;7.53;;;;;;;45.39;12.87;100187.94;6228980;22;20098;-64
2022/08/13 07:41:30;;;;;;;10.18;7.43;;;;;;;45.03;12.88;100184.50;6228932;22;20458;-65
2022/08/13 07:43:55;;;;;;;10.30;8.15;;;;;;;44.13;14.42;100189.41;6228871;22;20553;-66
2022/08/13 07:46:20;;;;;;;7.88;7.10;;;;;;;43.35;14.53;100171.78;6176483;22;20019;-64
2022/08/13 07:48:51;;;;;;;9.88;6.82;;;;;;;43.14;15.16;100181.75;6202158;22;20019;-63
2022/08/13 07:51:20;;;;;;;10.10;7.53;;;;;;;43.07;14.98;100170.13;6176422;22;20094;-64
2022/08/13 07:53:54;;;;;;;8.23;7.35;;;;;;;43.66;15.10;100186.00;6228808;22;20489;-65
2022/08/13 07:56:28;;;;;;;7.85;6.97;;;;;;;43.95;14.33;100182.78;6201546;22;20039;-65
2022/08/13 07:58:55;;;;;;;12.55;8.25;;;;;;;43.76;14.62;100177.34;6229693;22;20022;-66
2022/08/13 08:01:19;;;;;;;8.20;7.40;;;;;;;43.35;14.63;100173.75;6231021;22;20461;-65
2022/08/13 08:03:47;;;;;;;8.07;7.05;;;;;;;43.34;14.86;100178.56;6230411;22;20019;-64
2022/08/13 08:06:17;;;;;;;12.98;8.02;;;;;;;43.45;14.44;100173.56;6203699;22;20054;-64
2022/08/13 08:08:44;;;;;;;7.70;6.90;;;;;;;43.21;14.55;100172.97;6203976;22;20060;-65
2022/08/13 08:12:30;;;;;;;7.63;6.93;;;;;;;42.70;14.83;100174.75;6230836;22;20016;-64
2022/08/13 08:13:57;;;;;;;9.65;6.47;;;;;;;41.96;15.33;100142.16;6203758;22;20015;-65
2022/08/13 08:16:22;;;;;;;11.60;6.97;;;;;;;41.65;15.66;100158.56;6230621;22;20018;-64
2022/08/13 08:18:47;;;;;;;9.00;6.82;;;;;;;42.14;15.29;100154.44;6203411;22;20020;-62
2022/08/13 08:21:12;;;;;;;9.55;7.13;;;;;;;43.08;14.38;100164.19;6230592;22;20395;-64
2022/08/13 08:23:37;;;;;;;8.90;7.00;;;;;;;44.00;14.19;100154.59;6203090;22;20043;-65
2022/08/13 08:26:07;;;;;;;12.38;7.68;;;;;;;45.33;12.90;100168.72;6203222;22;20023;-64
2022/08/13 08:28:31;;;;;;;8.60;7.72;;;;;;;46.55;12.20;100154.28;6203646;22;20019;-66
2022/08/13 08:30:56;;;;;;;10.07;9.00;;;;;;;47.82;11.21;100174.94;6231027;22;20019;-64
2022/08/13 08:33:27;;;;;;;10.43;9.20;;;;;;;48.89;10.96;100174.84;6203078;22;20462;-64
2022/08/13 08:35:54;;;;;;;11.52;10.63;;;;;;;49.69;10.22;100168.53;6177917;22;20016;-65
2022/08/13 08:43:50;;;;;;;16.10;14.95;;;;;;;51.65;8.78;100166.13;6230266;22;20459;-64
2022/08/13 08:46:16;;;;;;;15.80;14.40;;;;;;;52.03;8.39;100174.72;6202997;22;20024;-65
2022/08/13 08:48:41;;;;;;;19.90;18.48;;;;;;;52.43;8.70;100199.91;6230074;22;20012;-65
2022/08/13 08:51:07;;;;;;;17.92;16.60;;;;;;;52.88;8.51;100206.88;6230177;22;20451;-66
2022/08/13 08:53:32;;;;;;;19.45;18.08;;;;;;;52.64;8.29;100230.00;6177580;22;20062;-65
2022/08/13 08:55:58;;;;;;;17.50;16.00;;;;;;;52.29;8.50;100195.94;6202996;22;20028;-65
2022/08/13 08:58:23;;;;;;;17.48;16.10;;;;;;;51.86;8.77;100156.03;6203337;22;20422;-66
2022/08/13 09:00:53;;;;;;;18.10;16.45;;;;;;;51.88;8.68;100159.34;6230704;22;20026;-65
2022/08/13 09:03:19;;;;;;;19.92;18.52;;;;;;;52.18;8.69;100150.19;6229908;22;20031;-66
2022/08/13 09:05:48;;;;;;;20.27;18.52;;;;;;;52.78;8.48;100154.19;6230167;22;20082;-67
2022/08/13 09:08:19;;;;;;;23.38;21.58;;;;;;;53.18;8.48;100153.63;6230386;22;20026;-64
2022/08/13 09:10:47;;;;;;;19.67;18.33;;;;;;;52.47;8.29;100143.88;6229481;22;20481;-65
2022/08/13 09:13:19;;;;;;;17.10;15.85;;;;;;;52.01;8.77;100142.13;6230559;22;20039;-65
2022/08/13 09:15:46;;;;;;;18.45;17.10;;;;;;;51.56;8.99;100140.78;6204548;22;20043;-65
2022/08/13 09:18:11;;;;;;;18.20;16.80;;;;;;;50.70;8.98;100134.16;6232258;22;20059;-67
2022/08/13 09:20:37;;;;;;;17.00;15.35;;;;;;;50.40;9.61;100130.94;6231881;22;20015;-71
2022/08/13 09:23:14;;;;;;;15.93;14.35;;;;;;;50.83;9.46;100139.38;6204044;22;20019;-66
2022/08/13 09:25:43;;;;;;;16.67;15.43;;;;;;;50.52;9.19;100132.84;6233173;22;20018;-65
2022/08/13 09:28:09;;;;;;;17.83;16.33;;;;;;;50.02;9.80;100134.28;6179542;22;20497;-66
2022/08/13 09:30:35;;;;;;;15.20;13.90;;;;;;;49.84;9.92;100119.59;6232440;22;20479;-66
2022/08/13 09:33:02;;;;;;;17.83;16.40;;;;;;;50.12;10.01;100128.09;6232781;22;20145;-63
2022/08/13 09:35:28;;;;;;;16.27;14.63;;;;;;;50.53;9.72;100126.81;6231675;22;20022;-67
2022/08/13 09:37:56;;;;;;;16.73;15.23;;;;;;;50.80;9.00;100127.91;6231842;22;20095;-65
2022/08/13 09:40:32;;;;;;;19.02;17.35;;;;;;;50.79;8.94;100134.81;6232813;22;20022;-66
2022/08/13 09:43:02;;;;;;;17.65;16.23;;;;;;;51.18;9.34;100130.91;6205628;22;20042;-68
2022/08/13 09:45:29;;;;;;;17.95;16.58;;;;;;;51.47;8.76;100125.94;6233085;22;20089;-67
2022/08/13 09:47:55;;;;;;;19.33;17.92;;;;;;;50.76;9.17;100118.50;6233185;22;20027;-66
2022/08/13 09:50:21;;;;;;;18.23;16.88;;;;;;;49.89;9.31;100124.22;6205340;22;20023;-68
2022/08/13 09:52:46;;;;;;;17.33;15.93;;;;;;;48.40;10.20;100111.66;6231637;22;20115;-67
2022/08/13 09:55:10;;;;;;;15.15;13.98;;;;;;;47.00;10.79;100103.84;6233901;22;20022;-66
2022/08/13 09:57:59;;;;;;;13.40;12.25;;;;;;;46.00;11.91;100101.50;6233085;22;20022;-66
2022/08/13 10:00:27;;;;;;;12.45;11.32;;;;;;;44.63;13.30;100091.63;6231826;22;20097;-70
2022/08/13 10:02:56;;;;;;;12.00;10.82;;;;;;;45.04;13.23;100098.91;6205112;22;20023;-67
2022/08/13 10:05:21;;;;;;;18.67;12.85;;;;;;;46.41;12.15;100083.16;6206090;22;20027;-70
2022/08/13 10:07:46;;;;;;;14.15;12.82;;;;;;;48.06;10.61;100093.03;6205639;22;20016;-68
2022/08/13 10:10:12;;;;;;;14.52;13.13;;;;;;;49.08;10.53;100090.13;6205701;22;20091;-67
2022/08/13 10:12:37;;;;;;;13.48;12.38;;;;;;;48.50;10.96;100096.25;6232543;22;20011;-68
2022/08/13 10:15:03;;;;;;;14.32;12.85;;;;;;;48.09;10.67;100092.34;6232980;22;20026;-67
2022/08/13 10:17:45;;;;;;;16.42;14.90;;;;;;;48.12;10.85;100091.66;6232136;22;20015;-67
2022/08/13 10:20:10;;;;;;;15.05;13.68;;;;;;;47.14;11.47;100081.00;6230784;22;20020;-68
2022/08/13 10:22:36;;;;;;;20.10;12.68;;;;;;;47.02;11.54;100086.56;6228459;22;20354;-70
2022/08/13 10:25:02;;;;;;;20.15;13.02;;;;;;;47.50;11.35;100086.91;6151601;22;20420;-68
2022/08/13 10:27:27;;;;;;;11.82;10.68;;;;;;;46.83;10.72;100078.53;6228592;22;20530;-67
2022/08/13 10:29:52;;;;;;;10.55;9.63;;;;;;;44.75;12.21;100069.38;6228885;22;20546;-66
2022/08/13 10:32:17;;;;;;;14.50;8.50;;;;;;;42.71;13.08;100069.84;6202362;22;20011;-66
2022/08/13 10:34:44;;;;;;;15.85;7.95;;;;;;;40.87;14.86;100061.91;6202397;22;20015;-68
2022/08/13 10:37:08;;;;;;;13.45;7.95;;;;;;;39.45;16.20;100054.06;6228650;22;20022;-68
2022/08/13 10:39:33;;;;;;;14.45;7.82;;;;;;;38.42;17.12;100063.13;6228152;22;20023;-66
2022/08/13 10:42:00;;;;;;;8.32;7.05;;;;;;;37.64;18.26;100045.94;6228539;22;20022;-66
2022/08/13 10:44:24;;;;;;;15.30;7.30;;;;;;;36.89;19.63;100044.63;6228242;22;20479;-67
2022/08/13 10:46:49;;;;;;;9.13;6.68;;;;;;;36.30;20.46;100044.88;6228266;22;20494;-66
2022/08/13 10:49:14;;;;;;;12.25;7.07;;;;;;;35.88;20.81;100051.22;6228371;22;20019;-67
2022/08/13 10:51:39;;;;;;;15.63;7.80;;;;;;;35.46;21.01;100045.53;6227934;22;20386;-67
2022/08/13 10:54:04;;;;;;;17.85;7.07;;;;;;;35.05;21.61;100041.50;6228583;22;20012;-64
2022/08/13 10:56:31;;;;;;;14.77;6.55;;;;;;;34.65;22.31;100046.53;6201236;22;20029;-64
2022/08/13 10:58:59;;;;;;;11.23;6.72;;;;;;;34.31;22.81;100048.56;6202040;22;20019;-66
2022/08/13 11:01:24;;;;;;;11.55;6.63;;;;;;;33.99;22.83;100040.00;6176825;22;20526;-65
2022/08/13 11:03:55;;;;;;;10.25;6.32;;;;;;;33.71;23.64;100040.91;6229864;22;20509;-65
2022/08/13 11:06:20;;;;;;;14.20;5.93;;;;;;;33.39;24.35;100033.19;6229811;22;20015;-68
2022/08/13 11:08:47;;;;;;;12.88;6.88;;;;;;;33.09;24.13;100033.41;6229217;22;20022;-67
2022/08/13 11:11:11;;;;;;;10.13;5.90;;;;;;;32.84;24.19;100034.84;6228881;22;20462;-67
2022/08/13 11:13:37;;;;;;;12.05;5.93;;;;;;;32.61;23.69;100033.81;6201901;22;20393;-69
2022/08/13 11:16:05;;;;;;;9.70;6.55;;;;;;;32.36;24.28;100031.34;6228508;22;20026;-66
2022/08/13 11:18:30;;;;;;;9.90;6.00;;;;;;;32.21;24.54;100022.69;6176092;22;20011;-65
2022/08/13 11:21:06;;;;;;;12.18;5.68;;;;;;;32.08;25.44;100026.50;6201997;22;20016;-66
2022/08/13 11:23:31;;;;;;;11.18;6.10;;;;;;;31.94;25.08;100018.75;6202293;22;20027;-65
2022/08/13 11:25:56;;;;;;;10.00;6.40;;;;;;;31.78;25.69;100017.53;6228892;22;20019;-67
2022/08/13 11:28:22;;;;;;;10.63;6.32;;;;;;;31.63;25.79;100017.09;6229011;22;20019;-67
2022/08/13 11:30:48;;;;;;;12.32;6.32;;;;;;;31.45;25.76;100014.44;6176383;22;20027;-67
2022/08/13 11:33:13;;;;;;;11.68;7.53;;;;;;;31.17;25.98;100013.16;6201043;22;20148;-68
2022/08/13 11:35:37;;;;;;;11.05;6.32;;;;;;;30.93;26.09;100012.22;6177742;22;20032;-71